sensor_id;sensor_type;location;lat;lon;timestamp;temperature;humidity
10986;DHT22;5546;48.714;8.738;2022-10-17T00:00:00;15.70;99.90
10986;DHT22;5546;48.714;8.738;2022-10-17T00:02:26;15.80;99.90
10986;DHT22;5546;48.714;8.738;2022-10-17T00:04:51;15.80;99.90
10986;DHT22;5546;48.714;8.738;2022-10-17T00:07:17;15.80;99.90
10986;DHT22;5546;48.714;8.738;2022-10-17T00:09:43;15.80;99.90
10986;DHT22;5546;48.714;8.738;2022-10-17T00:12:09;15.70;99.90
10986;DHT22;5546;48.714;8.738;2022-10-17T00:14:35;15.70;99.90
10986;DHT22;5546;48.714;8.738;2022-10-17T00:17:01;15.80;99.90
10986;DHT22;5546;48.714;8.738;2022-10-17T00:19:27;15.70;99.90
10986;DHT22;5546;48.714;8.738;2022-10-17T00:21:52;15.70;99.90
10986;DHT22;5546;48.714;8.738;2022-10-17T00:24:18;15.70;99.90
10986;DHT22;5546;48.714;8.738;2022-10-17T00:26:43;15.70;99.90
10986;DHT22;5546;48.714;8.738;2022-10-17T00:29:09;15.70;99.90
10986;DHT22;5546;48.714;8.738;2022-10-17T00:31:34;15.70;99.90
10986;DHT22;5546;48.714;8.738;2022-10-17T00:34:00;15.80;99.90
10986;DHT22;5546;48.714;8.738;2022-10-17T00:36:26;15.70;99.90
10986;DHT22;5546;48.714;8.738;2022-10-17T00:38:57;15.50;99.90
10986;DHT22;5546;48.714;8.738;2022-10-17T00:41:29;15.50;99.90
10986;DHT22;5546;48.714;8.738;2022-10-17T00:44:03;15.80;99.90
10986;DHT22;5546;48.714;8.738;2022-10-17T00:46:31;15.80;99.90
10986;DHT22;5546;48.714;8.738;2022-10-17T00:48:59;15.80;99.90
10986;DHT22;5546;48.714;8.738;2022-10-17T00:51:33;15.80;99.90
10986;DHT22;5546;48.714;8.738;2022-10-17T00:54:00;15.60;99.90
10986;DHT22;5546;48.714;8.738;2022-10-17T00:56:27;15.60;99.90
10986;DHT22;5546;48.714;8.738;2022-10-17T00:58:52;15.50;99.90
10986;DHT22;5546;48.714;8.738;2022-10-17T01:01:18;15.40;99.90
10986;DHT22;5546;48.714;8.738;2022-10-17T01:03:43;15.30;99.90
10986;DHT22;5546;48.714;8.738;2022-10-17T01:06:09;15.60;99.90
10986;DHT22;5546;48.714;8.738;2022-10-17T01:08:35;15.60;99.90
10986;DHT22;5546;48.714;8.738;2022-10-17T01:11:10;15.60;99.90
10986;DHT22;5546;48.714;8.738;2022-10-17T01:22:06;15.50;99.90
10986;DHT22;5546;48.714;8.738;2022-10-17T01:24:43;15.50;99.90
10986;DHT22;5546;48.714;8.738;2022-10-17T01:37:55;15.30;99.90
10986;DHT22;5546;48.714;8.738;2022-10-17T01:40:30;15.20;99.90
10986;DHT22;5546;48.714;8.738;2022-10-17T01:43:19;15.30;99.90
10986;DHT22;5546;48.714;8.738;2022-10-17T01:45:58;15.30;99.90
10986;DHT22;5546;48.714;8.738;2022-10-17T01:48:31;15.30;99.90
10986;DHT22;5546;48.714;8.738;2022-10-17T01:51:11;15.10;99.90
10986;DHT22;5546;48.714;8.738;2022-10-17T01:53:48;15.10;99.90
10986;DHT22;5546;48.714;8.738;2022-10-17T01:56:14;15.10;99.90
10986;DHT22;5546;48.714;8.738;2022-10-17T01:58:51;15.10;99.90
10986;DHT22;5546;48.714;8.738;2022-10-17T02:01:18;15.30;99.90
10986;DHT22;5546;48.714;8.738;2022-10-17T02:03:46;15.10;99.90
10986;DHT22;5546;48.714;8.738;2022-10-17T02:06:13;15.10;99.90
10986;DHT22;5546;48.714;8.738;2022-10-17T02:08:46;15.10;99.90
10986;DHT22;5546;48.714;8.738;2022-10-17T02:11:13;15.00;99.90
10986;DHT22;5546;48.714;8.738;2022-10-17T02:14:09;14.90;99.90
10986;DHT22;5546;48.714;8.738;2022-10-17T02:19:37;15.00;99.90
10986;DHT22;5546;48.714;8.738;2022-10-17T02:24:51;14.90;99.90
10986;DHT22;5546;48.714;8.738;2022-10-17T02:27:41;15.20;99.90
10986;DHT22;5546;48.714;8.738;2022-10-17T02:30:12;15.40;99.90
10986;DHT22;5546;48.714;8.738;2022-10-17T02:32:51;15.20;99.90
10986;DHT22;5546;48.714;8.738;2022-10-17T02:35:20;15.30;99.90
10986;DHT22;5546;48.714;8.738;2022-10-17T02:37:47;15.30;99.90
10986;DHT22;5546;48.714;8.738;2022-10-17T02:40:16;15.40;99.90
10986;DHT22;5546;48.714;8.738;2022-10-17T02:42:44;15.50;99.90
10986;DHT22;5546;48.714;8.738;2022-10-17T02:45:11;15.50;99.90
10986;DHT22;5546;48.714;8.738;2022-10-17T02:47:49;15.50;99.90
10986;DHT22;5546;48.714;8.738;2022-10-17T02:50:15;15.40;99.90
10986;DHT22;5546;48.714;8.738;2022-10-17T02:52:45;15.30;99.90
10986;DHT22;5546;48.714;8.738;2022-10-17T02:55:16;15.40;99.90
10986;DHT22;5546;48.714;8.738;2022-10-17T02:57:49;15.50;99.90
10986;DHT22;5546;48.714;8.738;2022-10-17T03:00:16;15.40;99.90
10986;DHT22;5546;48.714;8.738;2022-10-17T03:02:45;15.20;99.90
10986;DHT22;5546;48.714;8.738;2022-10-17T03:05:17;15.40;99.90
10986;DHT22;5546;48.714;8.738;2022-10-17T03:07:43;15.60;99.90
10986;DHT22;5546;48.714;8.738;2022-10-17T03:10:09;15.40;99.90
10986;DHT22;5546;48.714;8.738;2022-10-17T03:12:34;15.40;99.90
10986;DHT22;5546;48.714;8.738;2022-10-17T03:15:00;15.50;99.70
10986;DHT22;5546;48.714;8.738;2022-10-17T03:17:26;15.50;99.90
10986;DHT22;5546;48.714;8.738;2022-10-17T03:19:51;15.60;99.90
10986;DHT22;5546;48.714;8.738;2022-10-17T03:22:17;15.50;99.90
10986;DHT22;5546;48.714;8.738;2022-10-17T03:24:42;15.50;99.90
10986;DHT22;5546;48.714;8.738;2022-10-17T03:27:08;15.30;99.60
10986;DHT22;5546;48.714;8.738;2022-10-17T03:29:33;15.30;99.90
10986;DHT22;5546;48.714;8.738;2022-10-17T03:31:59;15.40;99.90
10986;DHT22;5546;48.714;8.738;2022-10-17T03:34:24;15.30;99.90
10986;DHT22;5546;48.714;8.738;2022-10-17T03:36:50;15.30;99.80
10986;DHT22;5546;48.714;8.738;2022-10-17T03:39:15;15.20;99.90
10986;DHT22;5546;48.714;8.738;2022-10-17T03:41:41;15.10;99.90
10986;DHT22;5546;48.714;8.738;2022-10-17T03:44:06;15.50;99.40
10986;DHT22;5546;48.714;8.738;2022-10-17T03:46:32;15.50;99.70
10986;DHT22;5546;48.714;8.738;2022-10-17T03:48:57;15.50;99.50
10986;DHT22;5546;48.714;8.738;2022-10-17T03:51:23;15.30;99.90
10986;DHT22;5546;48.714;8.738;2022-10-17T03:56:17;15.30;99.90
10986;DHT22;5546;48.714;8.738;2022-10-17T03:58:44;15.20;99.90
10986;DHT22;5546;48.714;8.738;2022-10-17T04:01:12;15.10;99.90
10986;DHT22;5546;48.714;8.738;2022-10-17T04:03:39;14.70;99.90
10986;DHT22;5546;48.714;8.738;2022-10-17T04:06:05;14.80;99.90
10986;DHT22;5546;48.714;8.738;2022-10-17T04:08:31;14.50;99.90
10986;DHT22;5546;48.714;8.738;2022-10-17T04:10:59;14.60;99.90
10986;DHT22;5546;48.714;8.738;2022-10-17T04:13:25;14.60;99.90
10986;DHT22;5546;48.714;8.738;2022-10-17T04:15:58;14.80;99.90
10986;DHT22;5546;48.714;8.738;2022-10-17T04:18:24;15.00;99.90
10986;DHT22;5546;48.714;8.738;2022-10-17T04:20:50;15.20;99.90
10986;DHT22;5546;48.714;8.738;2022-10-17T04:23:15;15.30;99.90
10986;DHT22;5546;48.714;8.738;2022-10-17T04:25:41;15.30;99.90
10986;DHT22;5546;48.714;8.738;2022-10-17T04:28:06;15.30;99.90
10986;DHT22;5546;48.714;8.738;2022-10-17T04:30:32;15.20;99.70
10986;DHT22;5546;48.714;8.738;2022-10-17T04:32:57;15.20;99.90
10986;DHT22;5546;48.714;8.738;2022-10-17T04:35:23;15.30;99.90
10986;DHT22;5546;48.714;8.738;2022-10-17T04:37:48;15.30;99.80
10986;DHT22;5546;48.714;8.738;2022-10-17T04:40:14;15.30;99.70
10986;DHT22;5546;48.714;8.738;2022-10-17T04:42:39;15.30;99.90
10986;DHT22;5546;48.714;8.738;2022-10-17T04:45:05;15.50;99.70
10986;DHT22;5546;48.714;8.738;2022-10-17T04:47:31;15.20;99.70
10986;DHT22;5546;48.714;8.738;2022-10-17T04:49:57;14.90;99.70
10986;DHT22;5546;48.714;8.738;2022-10-17T04:52:22;14.70;99.90
10986;DHT22;5546;48.714;8.738;2022-10-17T04:54:49;14.70;99.90
10986;DHT22;5546;48.714;8.738;2022-10-17T04:57:15;14.70;99.90
10986;DHT22;5546;48.714;8.738;2022-10-17T04:59:40;14.80;99.90
10986;DHT22;5546;48.714;8.738;2022-10-17T05:02:06;15.00;99.80
10986;DHT22;5546;48.714;8.738;2022-10-17T05:04:31;15.00;99.90
10986;DHT22;5546;48.714;8.738;2022-10-17T05:06:57;15.00;99.90
10986;DHT22;5546;48.714;8.738;2022-10-17T05:09:22;15.10;99.90
10986;DHT22;5546;48.714;8.738;2022-10-17T05:11:48;15.10;99.90
10986;DHT22;5546;48.714;8.738;2022-10-17T05:14:14;15.10;99.90
10986;DHT22;5546;48.714;8.738;2022-10-17T05:16:40;15.10;99.80
10986;DHT22;5546;48.714;8.738;2022-10-17T05:19:05;15.10;99.70
10986;DHT22;5546;48.714;8.738;2022-10-17T05:21:31;15.20;99.90
10986;DHT22;5546;48.714;8.738;2022-10-17T05:23:57;15.40;99.30
10986;DHT22;5546;48.714;8.738;2022-10-17T05:26:23;15.40;99.20
10986;DHT22;5546;48.714;8.738;2022-10-17T05:28:49;15.30;99.40
10986;DHT22;5546;48.714;8.738;2022-10-17T05:31:16;15.40;99.60
10986;DHT22;5546;48.714;8.738;2022-10-17T05:33:42;15.40;99.00
10986;DHT22;5546;48.714;8.738;2022-10-17T05:36:08;15.30;99.30
10986;DHT22;5546;48.714;8.738;2022-10-17T05:38:34;14.20;99.90
10986;DHT22;5546;48.714;8.738;2022-10-17T05:41:01;14.40;99.90
10986;DHT22;5546;48.714;8.738;2022-10-17T05:43:28;14.30;99.90
10986;DHT22;5546;48.714;8.738;2022-10-17T05:45:54;13.80;99.90
10986;DHT22;5546;48.714;8.738;2022-10-17T05:48:21;13.70;99.90
10986;DHT22;5546;48.714;8.738;2022-10-17T05:50:47;13.70;99.90
10986;DHT22;5546;48.714;8.738;2022-10-17T05:53:13;13.50;99.90
10986;DHT22;5546;48.714;8.738;2022-10-17T05:55:39;13.50;99.90
10986;DHT22;5546;48.714;8.738;2022-10-17T05:58:04;13.50;99.90
10986;DHT22;5546;48.714;8.738;2022-10-17T06:00:30;13.60;99.90
10986;DHT22;5546;48.714;8.738;2022-10-17T06:02:55;14.20;99.90
10986;DHT22;5546;48.714;8.738;2022-10-17T06:05:21;14.20;99.90
10986;DHT22;5546;48.714;8.738;2022-10-17T06:07:46;14.00;99.90
10986;DHT22;5546;48.714;8.738;2022-10-17T06:10:14;14.20;99.90
10986;DHT22;5546;48.714;8.738;2022-10-17T06:12:42;14.10;99.90
10986;DHT22;5546;48.714;8.738;2022-10-17T06:15:08;14.00;99.90
10986;DHT22;5546;48.714;8.738;2022-10-17T06:17:34;13.90;99.90
10986;DHT22;5546;48.714;8.738;2022-10-17T06:19:59;14.50;99.90
10986;DHT22;5546;48.714;8.738;2022-10-17T06:22:25;14.70;99.90
10986;DHT22;5546;48.714;8.738;2022-10-17T06:24:50;14.70;99.90
10986;DHT22;5546;48.714;8.738;2022-10-17T06:27:18;14.50;99.90
10986;DHT22;5546;48.714;8.738;2022-10-17T06:29:45;14.30;99.90
10986;DHT22;5546;48.714;8.738;2022-10-17T06:32:10;14.50;99.90
10986;DHT22;5546;48.714;8.738;2022-10-17T06:34:36;14.50;99.90
10986;DHT22;5546;48.714;8.738;2022-10-17T06:37:02;14.90;99.90
10986;DHT22;5546;48.714;8.738;2022-10-17T06:39:27;15.10;99.40
10986;DHT22;5546;48.714;8.738;2022-10-17T06:41:59;15.00;99.30
10986;DHT22;5546;48.714;8.738;2022-10-17T06:44:24;15.00;99.60
10986;DHT22;5546;48.714;8.738;2022-10-17T06:46:55;14.80;99.90
10986;DHT22;5546;48.714;8.738;2022-10-17T06:49:20;14.80;99.70
10986;DHT22;5546;48.714;8.738;2022-10-17T06:51:45;14.90;99.80
10986;DHT22;5546;48.714;8.738;2022-10-17T06:54:11;14.90;99.50
10986;DHT22;5546;48.714;8.738;2022-10-17T06:56:36;14.90;99.90
10986;DHT22;5546;48.714;8.738;2022-10-17T06:59:02;15.60;98.90
10986;DHT22;5546;48.714;8.738;2022-10-17T07:01:29;15.60;99.10
10986;DHT22;5546;48.714;8.738;2022-10-17T07:03:55;15.70;98.70
10986;DHT22;5546;48.714;8.738;2022-10-17T07:06:20;15.60;98.80
10986;DHT22;5546;48.714;8.738;2022-10-17T07:08:48;17.70;96.50
10986;DHT22;5546;48.714;8.738;2022-10-17T07:11:17;17.70;96.60
10986;DHT22;5546;48.714;8.738;2022-10-17T07:13:43;20.60;91.60
10986;DHT22;5546;48.714;8.738;2022-10-17T07:16:09;20.80;91.70
10986;DHT22;5546;48.714;8.738;2022-10-17T07:18:35;21.60;90.00
10986;DHT22;5546;48.714;8.738;2022-10-17T07:21:00;22.70;87.60
10986;DHT22;5546;48.714;8.738;2022-10-17T07:23:26;24.80;79.50
10986;DHT22;5546;48.714;8.738;2022-10-17T07:25:57;24.80;79.80
10986;DHT22;5546;48.714;8.738;2022-10-17T07:28:23;25.10;76.70
10986;DHT22;5546;48.714;8.738;2022-10-17T07:30:48;24.30;78.30
10986;DHT22;5546;48.714;8.738;2022-10-17T07:33:14;23.60;79.70
10986;DHT22;5546;48.714;8.738;2022-10-17T07:35:39;24.30;79.60
10986;DHT22;5546;48.714;8.738;2022-10-17T07:38:05;25.10;77.20
10986;DHT22;5546;48.714;8.738;2022-10-17T07:40:31;26.20;74.80
10986;DHT22;5546;48.714;8.738;2022-10-17T07:42:56;27.10;72.20
10986;DHT22;5546;48.714;8.738;2022-10-17T07:45:22;27.50;70.70
10986;DHT22;5546;48.714;8.738;2022-10-17T07:47:48;25.90;71.10
10986;DHT22;5546;48.714;8.738;2022-10-17T07:50:13;25.10;73.70
10986;DHT22;5546;48.714;8.738;2022-10-17T07:52:39;24.40;76.70
10986;DHT22;5546;48.714;8.738;2022-10-17T07:55:07;24.50;76.80
10986;DHT22;5546;48.714;8.738;2022-10-17T07:57:33;25.10;75.80
10986;DHT22;5546;48.714;8.738;2022-10-17T07:59:58;25.70;73.90
10986;DHT22;5546;48.714;8.738;2022-10-17T08:02:25;25.90;73.50
10986;DHT22;5546;48.714;8.738;2022-10-17T08:04:51;26.10;73.50
10986;DHT22;5546;48.714;8.738;2022-10-17T08:07:17;26.00;72.30
10986;DHT22;5546;48.714;8.738;2022-10-17T08:09:44;26.30;72.60
10986;DHT22;5546;48.714;8.738;2022-10-17T08:12:10;26.60;72.40
10986;DHT22;5546;48.714;8.738;2022-10-17T08:14:35;26.60;73.20
10986;DHT22;5546;48.714;8.738;2022-10-17T08:17:01;28.30;70.10
10986;DHT22;5546;48.714;8.738;2022-10-17T08:19:26;28.40;70.70
10986;DHT22;5546;48.714;8.738;2022-10-17T08:21:52;29.50;66.40
10986;DHT22;5546;48.714;8.738;2022-10-17T08:24:19;29.40;66.90
10986;DHT22;5546;48.714;8.738;2022-10-17T08:26:44;30.10;65.10
10986;DHT22;5546;48.714;8.738;2022-10-17T08:29:14;30.30;63.90
10986;DHT22;5546;48.714;8.738;2022-10-17T08:31:40;30.80;63.20
10986;DHT22;5546;48.714;8.738;2022-10-17T08:34:05;30.90;62.40
10986;DHT22;5546;48.714;8.738;2022-10-17T08:36:31;29.40;63.70
10986;DHT22;5546;48.714;8.738;2022-10-17T08:38:57;27.20;69.70
10986;DHT22;5546;48.714;8.738;2022-10-17T08:47:05;24.90;77.00
10986;DHT22;5546;48.714;8.738;2022-10-17T08:49:55;23.80;82.30
10986;DHT22;5546;48.714;8.738;2022-10-17T08:54:53;23.20;86.40
10986;DHT22;5546;48.714;8.738;2022-10-17T08:57:19;23.20;87.00
10986;DHT22;5546;48.714;8.738;2022-10-17T08:59:49;23.10;87.90
10986;DHT22;5546;48.714;8.738;2022-10-17T09:02:56;22.40;87.30
10986;DHT22;5546;48.714;8.738;2022-10-17T09:16:46;22.40;92.20
10986;DHT22;5546;48.714;8.738;2022-10-17T09:19:20;23.00;91.20
10986;DHT22;5546;48.714;8.738;2022-10-17T09:26:53;24.10;90.70
10986;DHT22;5546;48.714;8.738;2022-10-17T09:29:23;25.10;88.10
10986;DHT22;5546;48.714;8.738;2022-10-17T09:32:01;26.80;84.30
10986;DHT22;5546;48.714;8.738;2022-10-17T09:34:29;28.70;78.40
10986;DHT22;5546;48.714;8.738;2022-10-17T09:36:57;28.90;77.90
10986;DHT22;5546;48.714;8.738;2022-10-17T09:39:24;30.30;75.40
10986;DHT22;5546;48.714;8.738;2022-10-17T09:47:27;33.10;65.80
10986;DHT22;5546;48.714;8.738;2022-10-17T09:49:54;32.80;66.50
10986;DHT22;5546;48.714;8.738;2022-10-17T09:52:39;32.50;67.00
10986;DHT22;5546;48.714;8.738;2022-10-17T09:55:17;32.60;66.90
10986;DHT22;5546;48.714;8.738;2022-10-17T10:06:05;36.00;60.80
10986;DHT22;5546;48.714;8.738;2022-10-17T10:08:36;36.40;59.00
10986;DHT22;5546;48.714;8.738;2022-10-17T10:11:13;35.90;59.40
10986;DHT22;5546;48.714;8.738;2022-10-17T10:13:39;37.40;57.80
10986;DHT22;5546;48.714;8.738;2022-10-17T10:16:24;37.80;57.00
10986;DHT22;5546;48.714;8.738;2022-10-17T10:18:54;38.80;55.00
10986;DHT22;5546;48.714;8.738;2022-10-17T10:21:24;38.70;53.90
10986;DHT22;5546;48.714;8.738;2022-10-17T10:24:16;39.20;53.90
10986;DHT22;5546;48.714;8.738;2022-10-17T10:26:45;39.30;52.50
10986;DHT22;5546;48.714;8.738;2022-10-17T10:29:31;39.60;51.90
10986;DHT22;5546;48.714;8.738;2022-10-17T10:34:57;38.80;49.80
10986;DHT22;5546;48.714;8.738;2022-10-17T10:37:37;37.60;52.90
10986;DHT22;5546;48.714;8.738;2022-10-17T10:40:16;37.20;55.10
10986;DHT22;5546;48.714;8.738;2022-10-17T10:42:46;37.30;55.70
10986;DHT22;5546;48.714;8.738;2022-10-17T10:45:16;37.80;55.00
10986;DHT22;5546;48.714;8.738;2022-10-17T10:47:57;38.40;52.70
10986;DHT22;5546;48.714;8.738;2022-10-17T10:50:30;38.50;53.70
10986;DHT22;5546;48.714;8.738;2022-10-17T10:58:52;38.90;53.10
10986;DHT22;5546;48.714;8.738;2022-10-17T11:01:27;38.90;53.60
10986;DHT22;5546;48.714;8.738;2022-10-17T11:06:25;39.10;53.00
10986;DHT22;5546;48.714;8.738;2022-10-17T11:09:04;39.20;52.80
10986;DHT22;5546;48.714;8.738;2022-10-17T11:11:38;39.30;52.70
10986;DHT22;5546;48.714;8.738;2022-10-17T11:15:01;40.00;51.60
10986;DHT22;5546;48.714;8.738;2022-10-17T11:22:50;40.20;51.30
10986;DHT22;5546;48.714;8.738;2022-10-17T11:25:34;40.20;51.20
10986;DHT22;5546;48.714;8.738;2022-10-17T11:28:01;40.30;51.20
10986;DHT22;5546;48.714;8.738;2022-10-17T11:30:37;40.20;50.90
10986;DHT22;5546;48.714;8.738;2022-10-17T11:33:04;39.50;52.10
10986;DHT22;5546;48.714;8.738;2022-10-17T11:35:37;39.70;51.70
10986;DHT22;5546;48.714;8.738;2022-10-17T11:40:45;38.70;53.00
10986;DHT22;5546;48.714;8.738;2022-10-17T11:46:24;39.00;53.00
10986;DHT22;5546;48.714;8.738;2022-10-17T11:48:59;39.40;51.30
10986;DHT22;5546;48.714;8.738;2022-10-17T11:51:28;38.50;52.00
10986;DHT22;5546;48.714;8.738;2022-10-17T12:01:59;40.20;51.10
10986;DHT22;5546;48.714;8.738;2022-10-17T12:04:39;40.00;48.70
10986;DHT22;5546;48.714;8.738;2022-10-17T12:07:14;39.10;50.40
10986;DHT22;5546;48.714;8.738;2022-10-17T12:09:57;39.20;49.40
10986;DHT22;5546;48.714;8.738;2022-10-17T12:12:25;38.70;47.40
10986;DHT22;5546;48.714;8.738;2022-10-17T12:14:51;38.50;49.10
10986;DHT22;5546;48.714;8.738;2022-10-17T12:20:16;37.60;47.90
10986;DHT22;5546;48.714;8.738;2022-10-17T12:25:24;36.10;51.10
10986;DHT22;5546;48.714;8.738;2022-10-17T12:28:11;36.00;50.60
10986;DHT22;5546;48.714;8.738;2022-10-17T12:30:55;34.70;52.10
10986;DHT22;5546;48.714;8.738;2022-10-17T12:38:42;35.70;52.80
10986;DHT22;5546;48.714;8.738;2022-10-17T12:41:08;35.60;51.50
10986;DHT22;5546;48.714;8.738;2022-10-17T12:43:41;35.50;50.00
10986;DHT22;5546;48.714;8.738;2022-10-17T12:46:08;35.40;51.00
10986;DHT22;5546;48.714;8.738;2022-10-17T12:51:12;35.70;52.80
10986;DHT22;5546;48.714;8.738;2022-10-17T12:53:56;36.50;50.20
10986;DHT22;5546;48.714;8.738;2022-10-17T12:56:40;36.00;50.70
10986;DHT22;5546;48.714;8.738;2022-10-17T12:59:17;36.10;50.40
10986;DHT22;5546;48.714;8.738;2022-10-17T13:01:46;36.30;52.00
10986;DHT22;5546;48.714;8.738;2022-10-17T13:04:12;36.60;48.30
10986;DHT22;5546;48.714;8.738;2022-10-17T13:06:46;34.80;50.00
10986;DHT22;5546;48.714;8.738;2022-10-17T13:09:27;33.20;55.30
10986;DHT22;5546;48.714;8.738;2022-10-17T13:11:55;32.10;57.00
10986;DHT22;5546;48.714;8.738;2022-10-17T13:14:23;30.80;59.20
10986;DHT22;5546;48.714;8.738;2022-10-17T13:19:24;27.20;67.10
10986;DHT22;5546;48.714;8.738;2022-10-17T13:21:51;26.20;71.90
10986;DHT22;5546;48.714;8.738;2022-10-17T13:24:31;26.00;69.00
10986;DHT22;5546;48.714;8.738;2022-10-17T13:26:57;26.00;72.30
10986;DHT22;5546;48.714;8.738;2022-10-17T13:29:24;26.20;73.60
10986;DHT22;5546;48.714;8.738;2022-10-17T13:31:56;26.50;71.30
10986;DHT22;5546;48.714;8.738;2022-10-17T13:34:24;25.90;73.20
10986;DHT22;5546;48.714;8.738;2022-10-17T13:36:53;26.00;73.50
10986;DHT22;5546;48.714;8.738;2022-10-17T13:39:23;25.50;73.60
10986;DHT22;5546;48.714;8.738;2022-10-17T13:41:51;25.20;74.00
10986;DHT22;5546;48.714;8.738;2022-10-17T13:44:20;25.30;76.50
10986;DHT22;5546;48.714;8.738;2022-10-17T13:46:46;25.30;77.60
10986;DHT22;5546;48.714;8.738;2022-10-17T13:49:33;25.40;77.80
10986;DHT22;5546;48.714;8.738;2022-10-17T13:52:01;25.20;78.30
10986;DHT22;5546;48.714;8.738;2022-10-17T13:54:48;24.90;78.70
10986;DHT22;5546;48.714;8.738;2022-10-17T13:57:26;25.00;80.30
10986;DHT22;5546;48.714;8.738;2022-10-17T13:59:54;24.40;80.30
10986;DHT22;5546;48.714;8.738;2022-10-17T14:02:26;24.60;81.10
10986;DHT22;5546;48.714;8.738;2022-10-17T14:05:12;23.70;83.10
10986;DHT22;5546;48.714;8.738;2022-10-17T14:10:32;24.10;82.30
10986;DHT22;5546;48.714;8.738;2022-10-17T14:12:59;23.50;85.70
10986;DHT22;5546;48.714;8.738;2022-10-17T14:15:28;23.50;86.30
10986;DHT22;5546;48.714;8.738;2022-10-17T14:18:06;23.60;86.90
10986;DHT22;5546;48.714;8.738;2022-10-17T14:20:33;23.70;85.90
10986;DHT22;5546;48.714;8.738;2022-10-17T14:22:59;23.80;84.70
10986;DHT22;5546;48.714;8.738;2022-10-17T14:28:00;23.70;86.00
10986;DHT22;5546;48.714;8.738;2022-10-17T14:30:33;23.60;81.30
10986;DHT22;5546;48.714;8.738;2022-10-17T14:33:01;23.60;81.50
10986;DHT22;5546;48.714;8.738;2022-10-17T14:35:28;23.40;87.40
10986;DHT22;5546;48.714;8.738;2022-10-17T14:38:03;23.30;86.60
10986;DHT22;5546;48.714;8.738;2022-10-17T14:40:30;23.20;86.80
10986;DHT22;5546;48.714;8.738;2022-10-17T14:43:00;23.10;88.00
10986;DHT22;5546;48.714;8.738;2022-10-17T14:45:34;23.30;86.80
10986;DHT22;5546;48.714;8.738;2022-10-17T14:48:13;23.40;84.40
10986;DHT22;5546;48.714;8.738;2022-10-17T14:50:39;23.20;87.30
10986;DHT22;5546;48.714;8.738;2022-10-17T14:55:38;22.40;90.30
10986;DHT22;5546;48.714;8.738;2022-10-17T14:58:18;22.20;90.50
10986;DHT22;5546;48.714;8.738;2022-10-17T15:00:46;22.40;89.60
10986;DHT22;5546;48.714;8.738;2022-10-17T15:03:11;22.40;87.80
10986;DHT22;5546;48.714;8.738;2022-10-17T15:05:38;22.40;88.10
10986;DHT22;5546;48.714;8.738;2022-10-17T15:08:09;22.30;91.20
10986;DHT22;5546;48.714;8.738;2022-10-17T15:10:36;22.30;91.70
10986;DHT22;5546;48.714;8.738;2022-10-17T15:13:06;22.30;91.30
10986;DHT22;5546;48.714;8.738;2022-10-17T15:15:32;22.30;91.60
10986;DHT22;5546;48.714;8.738;2022-10-17T15:17:58;22.70;91.00
10986;DHT22;5546;48.714;8.738;2022-10-17T15:20:25;22.30;91.20
10986;DHT22;5546;48.714;8.738;2022-10-17T15:22:53;21.90;92.20
10986;DHT22;5546;48.714;8.738;2022-10-17T15:25:19;21.80;92.70
10986;DHT22;5546;48.714;8.738;2022-10-17T15:27:44;21.80;92.60
10986;DHT22;5546;48.714;8.738;2022-10-17T15:30:27;21.40;93.30
10986;DHT22;5546;48.714;8.738;2022-10-17T15:32:53;21.20;94.40
10986;DHT22;5546;48.714;8.738;2022-10-17T15:35:19;20.70;95.60
10986;DHT22;5546;48.714;8.738;2022-10-17T15:37:46;20.60;95.70
10986;DHT22;5546;48.714;8.738;2022-10-17T15:42:47;21.10;95.50
10986;DHT22;5546;48.714;8.738;2022-10-17T15:45:15;20.80;95.90
10986;DHT22;5546;48.714;8.738;2022-10-17T15:47:42;20.70;96.60
10986;DHT22;5546;48.714;8.738;2022-10-17T15:50:16;20.60;96.80
10986;DHT22;5546;48.714;8.738;2022-10-17T15:52:42;20.60;97.10
10986;DHT22;5546;48.714;8.738;2022-10-17T15:55:09;20.90;97.00
10986;DHT22;5546;48.714;8.738;2022-10-17T15:57:37;21.10;96.40
10986;DHT22;5546;48.714;8.738;2022-10-17T16:00:05;21.10;96.40
10986;DHT22;5546;48.714;8.738;2022-10-17T16:02:31;21.00;96.70
10986;DHT22;5546;48.714;8.738;2022-10-17T16:04:58;21.10;97.00
10986;DHT22;5546;48.714;8.738;2022-10-17T16:07:24;21.10;97.20
10986;DHT22;5546;48.714;8.738;2022-10-17T16:09:49;21.50;95.90
10986;DHT22;5546;48.714;8.738;2022-10-17T16:12:18;21.50;95.80
10986;DHT22;5546;48.714;8.738;2022-10-17T16:14:44;21.50;96.00
10986;DHT22;5546;48.714;8.738;2022-10-17T16:17:14;21.10;95.80
10986;DHT22;5546;48.714;8.738;2022-10-17T16:19:40;21.10;96.10
10986;DHT22;5546;48.714;8.738;2022-10-17T16:22:29;20.60;97.20
10986;DHT22;5546;48.714;8.738;2022-10-17T16:25:04;20.40;97.50
10986;DHT22;5546;48.714;8.738;2022-10-17T16:27:36;20.60;96.80
10986;DHT22;5546;48.714;8.738;2022-10-17T16:30:05;20.50;96.70
10986;DHT22;5546;48.714;8.738;2022-10-17T16:32:31;20.40;97.00
10986;DHT22;5546;48.714;8.738;2022-10-17T16:34:56;20.70;96.70
10986;DHT22;5546;48.714;8.738;2022-10-17T16:37:24;20.70;96.60
10986;DHT22;5546;48.714;8.738;2022-10-17T16:39:50;20.70;96.60
10986;DHT22;5546;48.714;8.738;2022-10-17T16:42:18;20.70;96.40
10986;DHT22;5546;48.714;8.738;2022-10-17T16:44:44;20.90;96.70
10986;DHT22;5546;48.714;8.738;2022-10-17T16:47:10;20.70;96.30
10986;DHT22;5546;48.714;8.738;2022-10-17T16:49:36;20.20;96.70
10986;DHT22;5546;48.714;8.738;2022-10-17T16:52:02;20.10;97.00
10986;DHT22;5546;48.714;8.738;2022-10-17T16:54:28;20.10;97.40
10986;DHT22;5546;48.714;8.738;2022-10-17T16:56:54;20.10;96.80
10986;DHT22;5546;48.714;8.738;2022-10-17T16:59:21;20.10;97.00
10986;DHT22;5546;48.714;8.738;2022-10-17T17:01:47;20.30;96.70
10986;DHT22;5546;48.714;8.738;2022-10-17T17:04:12;20.50;96.50
10986;DHT22;5546;48.714;8.738;2022-10-17T17:06:38;20.30;96.60
10986;DHT22;5546;48.714;8.738;2022-10-17T17:09:04;20.20;97.00
10986;DHT22;5546;48.714;8.738;2022-10-17T17:11:29;20.20;96.50
10986;DHT22;5546;48.714;8.738;2022-10-17T17:13:57;20.10;96.70
10986;DHT22;5546;48.714;8.738;2022-10-17T17:16:24;20.10;96.90
10986;DHT22;5546;48.714;8.738;2022-10-17T17:18:59;20.10;96.70
10986;DHT22;5546;48.714;8.738;2022-10-17T17:21:25;19.50;96.90
10986;DHT22;5546;48.714;8.738;2022-10-17T17:23:52;19.50;97.20
10986;DHT22;5546;48.714;8.738;2022-10-17T17:26:20;19.50;97.30
10986;DHT22;5546;48.714;8.738;2022-10-17T17:28:46;19.30;97.20
10986;DHT22;5546;48.714;8.738;2022-10-17T17:31:15;19.40;97.10
10986;DHT22;5546;48.714;8.738;2022-10-17T17:33:41;19.40;97.30
10986;DHT22;5546;48.714;8.738;2022-10-17T17:36:07;19.40;97.00
10986;DHT22;5546;48.714;8.738;2022-10-17T17:38:35;19.40;97.10
10986;DHT22;5546;48.714;8.738;2022-10-17T17:41:01;19.50;96.90
10986;DHT22;5546;48.714;8.738;2022-10-17T17:43:28;19.50;96.60
10986;DHT22;5546;48.714;8.738;2022-10-17T17:45:53;19.40;96.80
10986;DHT22;5546;48.714;8.738;2022-10-17T17:48:19;19.60;96.50
10986;DHT22;5546;48.714;8.738;2022-10-17T17:50:45;19.60;96.80
10986;DHT22;5546;48.714;8.738;2022-10-17T17:53:12;19.50;97.10
10986;DHT22;5546;48.714;8.738;2022-10-17T17:55:38;19.70;96.60
10986;DHT22;5546;48.714;8.738;2022-10-17T17:58:04;19.70;96.60